createdAt,value
2022-08-05T00:04:59.225Z,101056.31
2022-08-05T00:10:02.029Z,101095.66
2022-08-05T00:15:53.915Z,101069.72
2022-08-05T00:20:29.950Z,101047.34
2022-08-05T00:25:45.393Z,101035.78
2022-08-05T00:30:52.064Z,101014.31
2022-08-05T00:36:16.062Z,101001.75
2022-08-05T00:41:52.232Z,101008.75
2022-08-05T00:46:54.260Z,101012.31
2022-08-05T00:52:08.243Z,101024.84
2022-08-05T00:57:11.151Z,101040.09
2022-08-05T01:02:13.957Z,101040.16
2022-08-05T01:07:20.838Z,101035.72
2022-08-05T01:12:29.774Z,101032.09
2022-08-05T01:17:40.222Z,101039.28
2022-08-05T01:22:59.701Z,101045.47
2022-08-05T01:28:28.988Z,101043.63
2022-08-05T01:33:36.775Z,101050.66
2022-08-05T01:38:41.028Z,101052.34
2022-08-05T01:43:46.826Z,101058.56
2022-08-05T01:48:54.412Z,101070.25
2022-08-05T01:53:58.903Z,101053.34
2022-08-05T01:59:05.815Z,101058.72
2022-08-05T02:04:11.890Z,101065.00
2022-08-05T02:09:16.483Z,101056.91
2022-08-05T02:14:31.960Z,101048.78
2022-08-05T02:19:41.358Z,101032.59
2022-08-05T02:24:53.694Z,101029.78
2022-08-05T02:30:02.021Z,101040.44
2022-08-05T02:35:14.162Z,101051.06
2022-08-05T02:40:18.359Z,101049.19
2022-08-05T02:45:24.479Z,101068.78
2022-08-05T02:50:29.562Z,101060.66
2022-08-05T02:55:59.813Z,101021.34
2022-08-05T03:01:00.509Z,100999.81
2022-08-05T03:06:53.943Z,101002.28
2022-08-05T03:11:54.671Z,101012.06
2022-08-05T03:16:53.349Z,101029.00
2022-08-05T03:21:56.429Z,101015.63
2022-08-05T03:27:01.563Z,101015.47
2022-08-05T03:32:07.681Z,101000.28
2022-08-05T03:37:11.803Z,101001.00
2022-08-05T03:42:17.196Z,101010.81
2022-08-05T03:47:21.445Z,101030.31
2022-08-05T03:52:38.383Z,101036.56
2022-08-05T03:57:54.001Z,101022.34
2022-08-05T04:03:01.267Z,101009.94
2022-08-05T04:08:30.040Z,101007.25
2022-08-05T04:13:51.211Z,100995.56
2022-08-05T04:18:54.765Z,100991.94
2022-08-05T04:24:06.290Z,100986.50
2022-08-05T04:29:09.883Z,101013.25
2022-08-05T04:34:31.729Z,101041.00
2022-08-05T04:39:36.100Z,101027.75
2022-08-05T04:44:39.188Z,101048.19
2022-08-05T04:50:02.598Z,101053.44
2022-08-05T04:55:14.442Z,101058.91
2022-08-05T05:00:18.545Z,101056.22
2022-08-05T05:05:29.101Z,101050.06
2022-08-05T05:10:33.676Z,101034.94
2022-08-05T05:15:57.320Z,101059.88
2022-08-05T05:21:01.275Z,101075.88
2022-08-05T05:26:04.226Z,101081.28
2022-08-05T05:31:08.926Z,101062.47
2022-08-05T05:36:13.495Z,101004.28
2022-08-05T05:41:17.620Z,101018.34
2022-08-05T05:46:21.770Z,101024.69
2022-08-05T05:51:27.836Z,101072.22
2022-08-05T05:56:34.755Z,101110.78
2022-08-05T06:01:40.108Z,101150.22
2022-08-05T06:06:47.477Z,101178.69
2022-08-05T06:12:01.442Z,101188.44
2022-08-05T06:17:22.372Z,101168.91
2022-08-05T06:22:30.646Z,101155.59
2022-08-05T06:28:09.330Z,101109.16
2022-08-05T06:32:59.898Z,101058.97
2022-08-05T06:38:11.279Z,101103.56
2022-08-05T06:43:57.903Z,101151.84
2022-08-05T06:48:55.852Z,101149.28
2022-08-05T06:54:03.989Z,101136.00
2022-08-05T06:59:09.668Z,101145.09
2022-08-05T07:04:14.768Z,101135.34
2022-08-05T07:09:24.907Z,101161.25
2022-08-05T07:14:45.495Z,101164.00
2022-08-05T07:20:31.435Z,101172.03
2022-08-05T07:25:54.504Z,101164.88
2022-08-05T07:30:38.883Z,101150.47
2022-08-05T07:36:02.191Z,101161.09
2022-08-05T07:41:35.216Z,101145.03
2022-08-05T07:46:33.829Z,101149.19
2022-08-05T07:51:41.049Z,101145.63
2022-08-05T07:57:13.282Z,101154.38
2022-08-05T08:07:39.465Z,101156.28
2022-08-05T08:12:59.035Z,101138.41
2022-08-05T08:18:02.927Z,101148.91
2022-08-05T08:23:11.599Z,101176.50
2022-08-05T08:28:36.293Z,101174.84
2022-08-05T08:33:41.176Z,101171.31
2022-08-05T08:38:44.041Z,101148.09
2022-08-05T08:45:22.491Z,101156.91
2022-08-05T08:50:22.251Z,101142.75
2022-08-05T08:54:48.172Z,101162.56
2022-08-05T08:59:52.403Z,101159.19
2022-08-05T09:05:17.267Z,101168.97
2022-08-05T09:10:21.819Z,101148.34
2022-08-05T09:15:32.359Z,101148.59
2022-08-05T09:20:41.782Z,101164.97
2022-08-05T09:26:00.326Z,101180.50
2022-08-05T09:31:22.199Z,101183.34
2022-08-05T09:36:56.439Z,101203.88
2022-08-05T09:42:03.986Z,101211.94
2022-08-05T09:47:12.652Z,101218.06
2022-08-05T09:52:20.136Z,101215.22
2022-08-05T09:57:39.675Z,101202.53
2022-08-05T10:02:49.641Z,101195.06
2022-08-05T10:08:35.973Z,101175.19
2022-08-05T10:13:31.562Z,101172.81
2022-08-05T10:18:48.611Z,101169.69
2022-08-05T10:24:00.549Z,101186.25
2022-08-05T10:29:04.017Z,101187.03
2022-08-05T10:34:09.424Z,101178.72
2022-08-05T10:39:24.257Z,101178.38
2022-08-05T10:44:30.449Z,101163.31
2022-08-05T10:49:48.755Z,101170.38
2022-08-05T10:55:05.752Z,101173.03
2022-08-05T11:00:17.935Z,101166.75
2022-08-05T11:05:26.280Z,101164.78
2022-08-05T11:10:33.151Z,101171.13
2022-08-05T11:16:00.576Z,101169.25
2022-08-05T11:21:06.432Z,101188.94
2022-08-05T11:26:29.086Z,101214.78
2022-08-05T11:31:57.537Z,101220.06
2022-08-05T11:37:01.310Z,101209.41
2022-08-05T11:42:11.190Z,101210.56
2022-08-05T11:47:48.172Z,101213.47
2022-08-05T11:52:53.176Z,101218.34
2022-08-05T11:58:10.936Z,101219.47
2022-08-05T12:03:23.825Z,101225.88
2022-08-05T12:08:32.972Z,101237.81
2022-08-05T12:13:48.745Z,101240.53
2022-08-05T12:18:53.550Z,101244.16
2022-08-05T12:24:04.936Z,101246.97
2022-08-05T12:29:16.230Z,101259.50
2022-08-05T12:34:23.776Z,101271.81
2022-08-05T12:39:37.278Z,101283.34
2022-08-05T12:44:43.117Z,101290.59
2022-08-05T12:50:04.139Z,101304.00
2022-08-05T12:55:22.541Z,101305.78
2022-08-05T13:02:01.381Z,101298.47
2022-08-05T13:05:50.602Z,101311.56
2022-08-05T13:11:01.009Z,101318.53
2022-08-05T13:16:04.348Z,101330.69
2022-08-05T13:21:09.882Z,101353.41
2022-08-05T13:26:16.747Z,101367.81
2022-08-05T13:31:19.937Z,101358.69
2022-08-05T13:36:43.629Z,101377.53
2022-08-05T13:41:47.828Z,101380.69
2022-08-05T13:47:04.860Z,101387.63
2022-08-05T13:52:12.827Z,101394.41
2022-08-05T13:57:17.735Z,101407.22
2022-08-05T14:02:26.586Z,101404.66
2022-08-05T14:08:00.419Z,101417.00
2022-08-05T14:12:58.717Z,101419.50
2022-08-05T14:18:03.846Z,101418.56
2022-08-05T14:23:06.915Z,101416.84
2022-08-05T14:28:15.998Z,101400.66
2022-08-05T14:33:32.530Z,101420.34
2022-08-05T14:38:53.613Z,101422.00
2022-08-05T14:44:09.509Z,101420.00
2022-08-05T14:49:17.530Z,101397.19
2022-08-05T14:54:28.818Z,101403.38
2022-08-05T14:59:35.711Z,101382.16
2022-08-05T15:04:38.745Z,101387.25
2022-08-05T15:09:51.430Z,101390.63
2022-08-05T15:14:58.766Z,101405.44
2022-08-05T15:20:01.604Z,101403.50
2022-08-05T15:25:13.570Z,101421.22
2022-08-05T15:30:18.492Z,101438.91
2022-08-05T15:35:21.838Z,101448.16
2022-08-05T15:41:01.277Z,101446.00
2022-08-05T15:46:00.565Z,101442.28
2022-08-05T15:51:05.906Z,101453.56
2022-08-05T15:56:14.111Z,101473.84
2022-08-05T16:01:19.165Z,101487.88
2022-08-05T16:06:23.468Z,101488.50
2022-08-05T16:11:42.572Z,101500.78
2022-08-05T16:16:48.351Z,101500.59
2022-08-05T16:22:00.241Z,101483.44
2022-08-05T16:27:07.382Z,101485.28
2022-08-05T16:32:11.715Z,101490.03
2022-08-05T16:38:01.704Z,101487.69
2022-08-05T16:42:37.399Z,101489.97
2022-08-05T16:47:53.343Z,101484.88
2022-08-05T16:52:57.092Z,101469.28
2022-08-05T16:58:01.621Z,101486.06
2022-08-05T17:03:09.269Z,101494.78
2022-08-05T17:08:36.100Z,101490.31
2022-08-05T17:13:46.878Z,101501.78
2022-08-05T17:18:51.143Z,101506.41
2022-08-05T17:24:04.754Z,101505.72
2022-08-05T17:29:11.175Z,101506.66
2022-08-05T17:34:17.768Z,101513.75
2022-08-05T17:39:23.771Z,101519.16
2022-08-05T17:44:32.587Z,101533.31
2022-08-05T17:49:52.055Z,101528.25
2022-08-05T17:54:59.697Z,101528.28
2022-08-05T18:00:04.718Z,101533.66
2022-08-05T18:05:10.644Z,101537.22
2022-08-05T18:10:20.443Z,101547.78
2022-08-05T18:15:27.089Z,101535.22
2022-08-05T18:20:32.598Z,101546.63
2022-08-05T18:25:35.877Z,101553.53
2022-08-05T18:30:40.255Z,101553.34
2022-08-05T18:36:00.696Z,101548.69
2022-08-05T18:41:57.703Z,101560.13
2022-08-05T18:46:30.356Z,101567.97
2022-08-05T18:52:05.107Z,101565.91
2022-08-05T18:57:15.226Z,101569.13
2022-08-05T19:02:38.125Z,101574.25
2022-08-05T19:07:45.880Z,101573.03
2022-08-05T19:12:49.945Z,101579.06
2022-08-05T19:18:08.355Z,101577.13
2022-08-05T19:24:03.795Z,101585.00
2022-08-05T19:28:41.493Z,101589.28
2022-08-05T19:33:48.313Z,101597.16
2022-08-05T19:39:01.689Z,101597.16
2022-08-05T19:44:13.818Z,101593.31
2022-08-05T19:49:17.806Z,101597.59
2022-08-05T20:00:44.539Z,101620.31
2022-08-05T20:05:51.706Z,101622.66
2022-08-05T20:10:55.148Z,101622.28
2022-08-05T20:15:59.634Z,101624.63
2022-08-05T20:21:04.489Z,101632.25
2022-08-05T20:26:07.915Z,101638.19
2022-08-05T20:31:21.665Z,101635.28
2022-08-05T20:36:26.073Z,101643.75
2022-08-05T20:41:43.748Z,101641.66
2022-08-05T20:46:48.891Z,101661.69
2022-08-05T20:51:53.646Z,101673.91
2022-08-05T20:56:57.246Z,101681.75
2022-08-05T21:02:01.700Z,101679.69
2022-08-05T21:07:08.922Z,101694.47
2022-08-05T21:12:12.115Z,101688.81
2022-08-05T21:17:21.496Z,101687.66
2022-08-05T21:22:25.388Z,101705.00
2022-08-05T21:27:28.335Z,101717.03
2022-08-05T21:32:43.178Z,101729.91
2022-08-05T21:37:47.413Z,101734.03
2022-08-05T21:42:56.265Z,101739.00
2022-08-05T21:48:06.274Z,101738.63
2022-08-05T21:53:16.656Z,101739.56
2022-08-05T21:58:24.824Z,101746.34
2022-08-05T22:03:52.752Z,101750.31
2022-08-05T22:08:56.858Z,101757.63
2022-08-05T22:14:19.802Z,101760.75
2022-08-05T22:20:00.227Z,101771.22
2022-08-05T22:25:04.596Z,101770.97
2022-08-05T22:30:13.150Z,101783.03
2022-08-05T22:35:17.662Z,101783.66
2022-08-05T22:40:22.036Z,101779.91
2022-08-05T22:45:26.342Z,101783.66
2022-08-05T22:50:30.549Z,101799.56
2022-08-05T22:55:37.164Z,101802.22
2022-08-05T23:00:57.065Z,101809.22
2022-08-05T23:06:01.562Z,101809.75
2022-08-05T23:11:04.931Z,101817.56
2022-08-05T23:16:11.657Z,101823.56
2022-08-05T23:21:16.517Z,101833.78
2022-08-05T23:26:19.951Z,101849.31
2022-08-05T23:31:24.489Z,101844.44
2022-08-05T23:36:28.648Z,101855.22
2022-08-05T23:41:48.440Z,101857.41
2022-08-05T23:46:51.725Z,101867.78
2022-08-05T23:52:13.566Z,101870.13
2022-08-05T23:57:19.327Z,101872.25
